Courtland, Virginia
Current Conditions -  °F | °C
As of 4:15 AM on Monday 24 Nov 2014 (Local Time) from KFKN Reporting Station
Overcast Overcast  
Wind Chill: 68°   Ceiling: 1200
Heat Index: 68°   Visibility: 10mi
Dew Point: 66°   Wind: 13mph
Humidity: 94%   Direction: 190°S
Pressure: 29.77"   Gusts: NA
Location:  36.72°N, 77.07°W
Report Text: KFKN 240915Z AUTO 19011KT 10SM OVC012 20/19 A2977 RMK AO1
Loading
Personal Weather Stations






























Interactive Weather Map New forecast layout! Learn more

10-Day Weather Forecast

Advertisements
Track Severe Weather on mobile